Time;durP1;ratioP1;P1;durP2;ratioP2;P2;SDS_P1;SDS_P2;PMS_P1;PMS_P2;Temp;Humidity;BMP_temperature;BMP_pressure;BME280_temperature;BME280_humidity;BME280_pressure;Samples;Min_cycle;Max_cycle;Signal;HPM_P1;HPM_P2
2023/01/30 00:01:23;;;;;;;50.67;35.95;;;5.80;99.90;;;;;;4941309;28;89590;-32
2023/01/30 00:03:49;;;;;;;50.92;38.67;;;6.70;99.90;;;;;;4940641;28;90543;-32
2023/01/30 00:06:15;;;;;;;50.83;37.38;;;5.80;99.90;;;;;;4941183;28;88932;-32
2023/01/30 00:08:40;;;;;;;49.30;36.05;;;5.90;99.90;;;;;;4940211;28;90281;-33
2023/01/30 00:11:08;;;;;;;50.95;35.63;;;5.70;99.90;;;;;;4941818;28;89758;-32
2023/01/30 00:13:34;;;;;;;47.05;34.08;;;5.80;99.90;;;;;;4941418;28;89609;-31
2023/01/30 00:16:00;;;;;;;43.30;34.20;;;5.90;99.90;;;;;;4940810;28;90439;-35
2023/01/30 00:18:25;;;;;;;43.22;33.25;;;5.90;99.90;;;;;;4941323;28;90472;-31
2023/01/30 00:20:58;;;;;;;41.30;33.63;;;5.80;99.90;;;;;;4940757;28;89346;-31
2023/01/30 00:23:28;;;;;;;41.20;32.67;;;5.90;99.90;;;;;;4941631;28;89537;-32
2023/01/30 00:25:55;;;;;;;42.80;31.73;;;;;;;;;;4941493;28;89997;-32
2023/01/30 00:28:24;;;;;;;40.08;29.15;;;6.10;99.90;;;;;;4941811;28;90435;-34
2023/01/30 00:30:53;;;;;;;44.85;32.90;;;6.10;99.90;;;;;;4940475;28;90089;-31
2023/01/30 00:33:21;;;;;;;42.80;29.77;;;6.10;99.90;;;;;;4941067;28;89873;-32
2023/01/30 00:35:49;;;;;;;32.08;26.27;;;6.30;99.90;;;;;;4940716;28;89009;-33
2023/01/30 00:38:15;;;;;;;40.60;28.42;;;6.30;99.90;;;;;;4941096;28;90386;-34
2023/01/30 00:40:41;;;;;;;39.55;28.73;;;6.40;99.90;;;;;;4939501;28;90792;-34
2023/01/30 00:48:39;;;;;;;36.15;26.55;;;6.50;99.90;;;;;;4940487;28;90087;-31
2023/01/30 00:51:04;;;;;;;43.67;29.27;;;6.60;99.90;;;;;;4939803;28;90994;-33
2023/01/30 00:53:30;;;;;;;37.60;27.20;;;6.50;99.90;;;;;;4940682;28;88565;-31
2023/01/30 00:55:55;;;;;;;32.33;25.85;;;6.60;99.90;;;;;;4940469;28;89583;-32
2023/01/30 00:58:23;;;;;;;37.63;27.42;;;6.60;99.90;;;;;;4941094;28;90782;-31
2023/01/30 01:00:49;;;;;;;34.70;25.85;;;6.70;99.90;;;;;;4941043;28;89883;-31
2023/01/30 01:03:15;;;;;;;41.15;28.42;;;6.70;99.90;;;;;;4940162;28;89449;-32
2023/01/30 01:05:42;;;;;;;35.50;26.30;;;6.80;99.90;;;;;;4940611;28;90169;-34
2023/01/30 01:08:08;;;;;;;30.73;21.33;;;6.70;99.90;;;;;;4940291;28;90023;-32
2023/01/30 01:10:34;;;;;;;38.05;28.08;;;6.70;99.90;;;;;;4939710;28;89872;-31
2023/01/30 01:13:01;;;;;;;31.70;25.70;;;6.80;99.90;;;;;;4939456;28;90997;-34
2023/01/30 01:15:27;;;;;;;40.58;25.83;;;6.80;99.90;;;;;;4941011;28;88498;-32
2023/01/30 01:17:53;;;;;;;41.85;28.35;;;6.80;99.90;;;;;;4939828;28;90378;-32
2023/01/30 01:20:19;;;;;;;40.30;27.33;;;6.80;99.90;;;;;;4939494;28;89309;-33
2023/01/30 01:22:49;;;;;;;33.90;24.63;;;6.80;99.90;;;;;;4940220;28;89740;-31
2023/01/30 01:25:15;;;;;;;37.22;27.70;;;6.70;99.90;;;;;;4940023;28;88247;-33
2023/01/30 01:27:41;;;;;;;31.60;24.05;;;6.70;99.90;;;;;;4939708;28;90427;-33
2023/01/30 01:30:07;;;;;;;42.33;29.80;;;6.70;99.90;;;;;;4940216;28;90718;-31
2023/01/30 01:32:33;;;;;;;31.80;24.33;;;6.70;99.90;;;;;;4939351;28;90241;-33
2023/01/30 01:34:58;;;;;;;33.88;25.83;;;6.60;99.90;;;;;;4939928;28;87947;-34
2023/01/30 01:37:24;;;;;;;30.90;21.10;;;6.60;99.90;;;;;;4940173;28;90367;-32
2023/01/30 01:42:36;;;;;;;35.05;20.88;;;6.70;99.90;;;;;;4940113;28;89604;-31
2023/01/30 01:45:01;;;;;;;39.03;22.03;;;6.70;99.90;;;;;;4939710;28;88887;-34
2023/01/30 01:47:28;;;;;;;32.63;23.00;;;6.70;99.90;;;;;;4939844;28;90257;-33
2023/01/30 01:49:54;;;;;;;28.85;21.35;;;6.60;99.90;;;;;;4939915;28;90878;-32
2023/01/30 01:52:20;;;;;;;32.40;24.00;;;6.70;99.90;;;;;;4940205;28;90188;-31
2023/01/30 01:54:51;;;;;;;39.03;23.17;;;6.60;99.90;;;;;;4939520;28;89368;-32
2023/01/30 01:57:24;;;;;;;29.00;21.65;;;6.60;99.90;;;;;;4939461;28;90496;-32
2023/01/30 01:59:59;;;;;;;29.42;21.85;;;6.60;99.90;;;;;;4939525;28;90132;-32
2023/01/30 02:02:25;;;;;;;28.02;19.10;;;6.60;99.90;;;;;;4927911;28;89470;-33
2023/01/30 02:05:02;;;;;;;22.38;17.13;;;6.60;99.90;;;;;;4939507;28;88362;-32
2023/01/30 02:07:35;;;;;;;28.70;20.42;;;6.60;99.90;;;;;;4939819;28;88550;-33
2023/01/30 02:10:01;;;;;;;21.35;17.25;;;6.60;99.90;;;;;;4939387;28;91008;-32
2023/01/30 02:12:27;;;;;;;15.05;12.63;;;6.60;99.90;;;;;;4939633;28;90127;-32
2023/01/30 02:14:55;;;;;;;13.43;11.10;;;6.70;99.90;;;;;;4939454;28;89029;-35
2023/01/30 02:17:22;;;;;;;18.45;12.38;;;6.60;99.90;;;;;;4940061;28;90109;-32
2023/01/30 02:19:54;;;;;;;14.63;10.55;;;6.60;99.90;;;;;;4938499;28;91395;-32
2023/01/30 02:22:35;;;;;;;15.95;10.43;;;6.70;99.90;;;;;;4939889;28;91028;-32
2023/01/30 02:25:28;;;;;;;11.10;9.38;;;6.70;99.90;;;;;;4939665;28;89076;-33
2023/01/30 02:28:21;;;;;;;10.73;8.85;;;6.70;99.90;;;;;;4939943;28;90385;-33
2023/01/30 02:31:06;;;;;;;9.98;8.13;;;6.70;99.90;;;;;;4939613;28;89862;-33
2023/01/30 02:33:46;;;;;;;9.38;7.13;;;6.70;99.90;;;;;;4939658;28;89453;-32
2023/01/30 02:36:27;;;;;;;8.88;7.25;;;6.70;99.90;;;;;;4940172;28;88894;-32
2023/01/30 02:39:05;;;;;;;10.75;7.88;;;6.70;99.90;;;;;;4939408;28;90352;-32
2023/01/30 02:41:54;;;;;;;11.67;6.80;;;6.70;99.90;;;;;;4940514;28;90272;-31
2023/01/30 02:44:32;;;;;;;10.13;6.63;;;6.80;99.90;;;;;;4939457;28;89893;-33
2023/01/30 02:47:10;;;;;;;8.30;5.60;;;6.70;99.90;;;;;;4939287;28;90984;-32
2023/01/30 02:49:47;;;;;;;13.48;6.10;;;6.80;99.90;;;;;;4939422;28;89896;-35
2023/01/30 02:52:14;;;;;;;7.88;6.70;;;6.80;99.90;;;;;;4939589;28;89602;-32
2023/01/30 02:54:39;;;;;;;7.75;5.25;;;6.80;99.90;;;;;;4939778;28;90041;-31
2023/01/30 02:57:21;;;;;;;10.52;6.03;;;6.80;99.90;;;;;;4939880;28;89017;-31
2023/01/30 02:59:54;;;;;;;9.27;5.55;;;6.80;99.90;;;;;;4939457;28;90606;-33
2023/01/30 03:02:41;;;;;;;9.68;6.00;;;6.80;99.90;;;;;;4939359;28;89536;-32
2023/01/30 03:05:36;;;;;;;11.02;5.95;;;6.80;99.90;;;;;;4939789;28;89401;-34
2023/01/30 03:08:18;;;;;;;11.07;6.43;;;6.80;99.90;;;;;;4939427;28;88356;-32
2023/01/30 03:11:02;;;;;;;7.97;5.20;;;6.90;99.90;;;;;;4939194;28;90064;-32
2023/01/30 03:13:36;;;;;;;8.18;6.38;;;6.90;99.90;;;;;;4939031;28;90096;-33
2023/01/30 03:16:04;;;;;;;6.72;5.60;;;6.90;99.90;;;;;;4938625;28;89244;-32
2023/01/30 03:18:30;;;;;;;6.20;4.90;;;6.80;99.90;;;;;;4927210;28;88178;-33
2023/01/30 03:20:55;;;;;;;14.07;7.10;;;6.90;99.90;;;;;;4938872;28;90359;-33
2023/01/30 03:23:21;;;;;;;17.65;7.55;;;6.90;99.90;;;;;;4938680;28;89201;-33
2023/01/30 03:25:47;;;;;;;9.43;6.15;;;6.90;99.90;;;;;;4939161;28;89488;-32
2023/01/30 03:28:19;;;;;;;20.10;7.55;;;6.90;99.90;;;;;;4939967;28;87616;-32
2023/01/30 03:30:44;;;;;;;10.98;6.35;;;7.00;99.90;;;;;;4939668;28;89460;-33
2023/01/30 03:33:10;;;;;;;8.77;5.97;;;7.00;99.90;;;;;;4938952;28;89572;-32
2023/01/30 03:35:36;;;;;;;19.48;7.22;;;7.00;99.90;;;;;;4938491;28;89422;-34
2023/01/30 03:38:02;;;;;;;13.65;7.60;;;7.00;99.90;;;;;;4938986;28;90114;-32
2023/01/30 03:40:28;;;;;;;17.27;7.85;;;6.90;99.90;;;;;;4939110;28;89541;-32
2023/01/30 03:42:53;;;;;;;12.82;6.70;;;6.90;99.90;;;;;;4941610;28;89069;-33
2023/01/30 03:45:19;;;;;;;19.00;6.88;;;6.90;99.90;;;;;;4941652;28;89225;-34
2023/01/30 03:47:44;;;;;;;12.65;7.15;;;7.00;99.90;;;;;;4942219;28;88550;-34
2023/01/30 03:50:10;;;;;;;16.30;6.47;;;7.00;99.90;;;;;;4941275;28;90316;-32
2023/01/30 03:52:36;;;;;;;13.40;7.00;;;7.00;99.90;;;;;;4942547;28;89979;-33
2023/01/30 03:55:02;;;;;;;15.18;6.68;;;7.00;99.90;;;;;;4942284;28;89527;-33
2023/01/30 03:57:28;;;;;;;11.55;6.90;;;7.00;99.90;;;;;;4942205;28;89320;-31
2023/01/30 03:59:53;;;;;;;12.13;6.47;;;6.90;99.90;;;;;;4942140;28;90712;-34
2023/01/30 04:02:21;;;;;;;18.33;7.70;;;6.90;99.90;;;;;;4941168;28;90552;-32
2023/01/30 04:04:48;;;;;;;15.35;6.90;;;6.90;99.90;;;;;;4941960;28;89808;-33
2023/01/30 04:07:14;;;;;;;13.77;6.35;;;6.90;99.90;;;;;;4942900;28;87667;-32
2023/01/30 04:09:39;;;;;;;17.33;6.80;;;6.90;99.90;;;;;;4941445;28;90057;-32
2023/01/30 04:12:05;;;;;;;15.52;5.72;;;6.90;99.90;;;;;;4941627;28;89946;-33
2023/01/30 04:14:31;;;;;;;14.48;7.03;;;6.90;99.90;;;;;;4942119;28;89652;-31
2023/01/30 04:16:56;;;;;;;13.77;6.13;;;6.90;99.90;;;;;;4941598;28;89420;-34
2023/01/30 04:19:22;;;;;;;10.52;6.00;;;6.90;99.90;;;;;;4942214;28;90955;-32
2023/01/30 04:21:47;;;;;;;12.60;7.28;;;6.90;99.90;;;;;;4941464;28;89117;-33
2023/01/30 04:24:13;;;;;;;21.88;6.85;;;6.90;99.90;;;;;;4941271;28;90370;-33
2023/01/30 04:26:39;;;;;;;14.32;6.43;;;6.90;99.90;;;;;;4942067;28;89322;-32
2023/01/30 04:29:04;;;;;;;20.23;6.93;;;6.80;99.90;;;;;;4941854;28;90427;-34
2023/01/30 04:31:30;;;;;;;22.73;8.43;;;6.80;99.90;;;;;;4941963;28;89257;-32
2023/01/30 04:33:56;;;;;;;26.30;6.97;;;6.80;99.90;;;;;;4940571;28;90395;-31
2023/01/30 04:36:22;;;;;;;16.20;5.75;;;6.80;99.90;;;;;;4941994;28;87908;-32
2023/01/30 04:38:47;;;;;;;19.92;7.68;;;6.80;99.90;;;;;;4941176;28;91436;-32
2023/01/30 04:41:13;;;;;;;22.42;7.78;;;6.80;99.90;;;;;;4941895;28;89543;-32
2023/01/30 04:43:38;;;;;;;12.60;6.68;;;6.70;99.90;;;;;;4941036;28;89373;-33
2023/01/30 04:46:04;;;;;;;9.35;5.90;;;6.60;99.90;;;;;;4941726;28;89063;-33
2023/01/30 04:48:30;;;;;;;20.45;6.80;;;6.70;99.90;;;;;;4941112;28;90013;-34
2023/01/30 04:50:56;;;;;;;12.80;5.28;;;6.60;99.90;;;;;;4940237;28;90652;-34
2023/01/30 04:53:22;;;;;;;19.27;7.00;;;6.50;99.90;;;;;;4941408;28;90892;-32
2023/01/30 04:55:48;;;;;;;22.30;7.55;;;6.50;99.90;;;;;;4941312;28;89355;-33
2023/01/30 04:58:15;;;;;;;19.13;6.28;;;6.50;99.90;;;;;;4940916;28;89877;-32
2023/01/30 05:00:41;;;;;;;18.92;6.25;;;6.60;99.90;;;;;;4941283;28;89630;-33
2023/01/30 05:03:06;;;;;;;10.52;6.85;;;6.60;99.90;;;;;;4940953;28;89506;-32
2023/01/30 05:05:33;;;;;;;17.80;6.50;;;6.50;99.90;;;;;;4941231;28;88974;-33
2023/01/30 05:07:59;;;;;;;16.42;6.75;;;6.60;99.90;;;;;;4941540;28;88248;-32
2023/01/30 05:10:25;;;;;;;16.90;6.70;;;6.50;99.90;;;;;;4941326;28;89481;-32
2023/01/30 05:12:50;;;;;;;29.58;6.10;;;6.60;99.90;;;;;;4941026;28;89778;-31
2023/01/30 05:15:16;;;;;;;19.52;6.50;;;6.60;99.90;;;;;;4940350;28;89724;-32
2023/01/30 05:17:41;;;;;;;19.33;6.22;;;6.70;99.90;;;;;;4940484;28;90548;-34
2023/01/30 05:20:12;;;;;;;23.80;6.18;;;6.60;99.90;;;;;;4940787;28;89619;-32
2023/01/30 05:22:38;;;;;;;20.40;5.97;;;6.50;99.90;;;;;;4939809;28;90118;-32
2023/01/30 05:25:05;;;;;;;26.42;7.80;;;6.50;99.90;;;;;;4940679;28;89023;-32
2023/01/30 05:27:30;;;;;;;16.65;5.85;;;6.40;99.90;;;;;;4955565;28;90166;-32
2023/01/30 05:29:56;;;;;;;22.55;6.85;;;6.40;99.90;;;;;;4940701;28;89623;-32
2023/01/30 05:32:21;;;;;;;18.40;6.63;;;6.40;99.90;;;;;;4940391;28;88861;-34
2023/01/30 05:34:48;;;;;;;14.05;6.40;;;6.30;99.90;;;;;;4941064;28;87862;-32
2023/01/30 05:37:14;;;;;;;19.05;6.05;;;6.20;99.90;;;;;;4940036;28;90765;-33
2023/01/30 05:39:40;;;;;;;24.48;7.10;;;6.20;99.90;;;;;;4939865;28;90765;-33
2023/01/30 05:42:05;;;;;;;14.25;5.63;;;6.20;99.90;;;;;;4940584;28;89460;-32
2023/01/30 05:44:31;;;;;;;10.15;5.15;;;6.20;99.90;;;;;;4940359;28;87784;-32
2023/01/30 05:46:56;;;;;;;19.35;6.65;;;6.30;99.90;;;;;;4940605;28;90045;-33
2023/01/30 05:49:23;;;;;;;20.48;6.38;;;6.30;99.90;;;;;;4939432;28;89361;-32
2023/01/30 05:51:49;;;;;;;24.13;6.75;;;6.30;99.90;;;;;;4939860;28;89920;-34
2023/01/30 05:54:14;;;;;;;20.67;6.97;;;6.20;99.90;;;;;;4940631;28;88857;-33
2023/01/30 05:56:40;;;;;;;16.38;6.55;;;6.20;99.90;;;;;;4939727;28;90253;-32
2023/01/30 05:59:06;;;;;;;15.57;5.90;;;6.30;99.90;;;;;;4940797;28;89844;-32
2023/01/30 06:01:32;;;;;;;21.13;6.35;;;6.20;99.90;;;;;;4939605;28;88771;-32
2023/01/30 06:03:57;;;;;;;17.45;6.55;;;6.20;99.90;;;;;;4940080;28;90038;-32
2023/01/30 06:06:24;;;;;;;18.98;6.38;;;6.20;99.90;;;;;;4939078;28;90363;-33
2023/01/30 06:08:54;;;;;;;14.27;5.65;;;6.10;99.90;;;;;;4940084;28;90048;-32
2023/01/30 06:11:21;;;;;;;12.00;5.93;;;6.10;99.90;;;;;;4940017;28;89479;-34
2023/01/30 06:13:47;;;;;;;13.55;6.05;;;6.10;99.90;;;;;;4940137;28;88713;-33
2023/01/30 06:16:14;;;;;;;22.65;6.47;;;6.00;99.90;;;;;;4939741;28;90245;-32
2023/01/30 06:18:40;;;;;;;23.73;6.60;;;6.00;99.90;;;;;;4939593;28;88970;-32
2023/01/30 06:21:06;;;;;;;19.13;6.72;;;6.00;99.90;;;;;;4939852;28;89830;-32
2023/01/30 06:23:32;;;;;;;15.48;5.95;;;6.00;99.90;;;;;;4939250;28;89736;-34
2023/01/30 06:25:58;;;;;;;24.30;6.15;;;5.90;99.90;;;;;;4938939;28;90334;-32
2023/01/30 06:28:25;;;;;;;20.33;6.78;;;5.90;99.90;;;;;;4939539;28;90741;-31
2023/01/30 06:30:51;;;;;;;15.30;5.85;;;5.80;99.90;;;;;;4938796;28;91362;-34
2023/01/30 06:33:17;;;;;;;21.95;5.75;;;5.80;99.90;;;;;;4939402;28;89058;-33
2023/01/30 06:35:43;;;;;;;26.40;7.30;;;5.80;99.90;;;;;;4938706;28;90186;-32
2023/01/30 06:38:10;;;;;;;20.23;6.07;;;5.80;99.90;;;;;;4938535;28;89554;-33
2023/01/30 06:40:47;;;;;;;23.70;6.20;;;5.70;99.90;;;;;;4939125;28;88952;-35
2023/01/30 06:43:13;;;;;;;15.75;4.95;;;5.80;99.90;;;;;;4940360;28;89539;-34
2023/01/30 06:45:39;;;;;;;20.42;5.78;;;5.80;99.90;;;;;;4939603;28;90391;-32
2023/01/30 06:48:05;;;;;;;18.67;5.38;;;5.90;99.90;;;;;;4939621;28;89903;-34
2023/01/30 06:50:31;;;;;;;21.38;6.38;;;5.80;99.90;;;;;;4939241;28;89438;-32
2023/01/30 06:53:00;;;;;;;22.15;6.85;;;5.90;99.90;;;;;;4938853;28;89146;-32
2023/01/30 06:55:27;;;;;;;15.60;5.00;;;5.80;99.90;;;;;;4938821;28;90281;-32
2023/01/30 06:58:10;;;;;;;10.98;5.32;;;5.80;99.90;;;;;;4939939;28;89219;-32
2023/01/30 07:00:41;;;;;;;10.45;5.43;;;5.70;99.90;;;;;;4939355;28;90649;-33
2023/01/30 07:03:11;;;;;;;22.98;5.90;;;5.80;99.90;;;;;;4940542;28;89816;-31
2023/01/30 07:05:38;;;;;;;18.88;5.63;;;5.90;99.90;;;;;;4939891;28;89912;-32
2023/01/30 07:08:04;;;;;;;17.45;5.97;;;5.90;99.90;;;;;;4931598;28;89414;-32
2023/01/30 07:10:31;;;;;;;14.45;5.75;;;5.90;99.90;;;;;;4938526;28;88993;-32
2023/01/30 07:12:57;;;;;;;27.55;5.45;;;5.90;99.90;;;;;;4938290;28;88017;-32
2023/01/30 07:15:23;;;;;;;14.25;5.13;;;5.80;99.90;;;;;;4938073;28;89652;-31
2023/01/30 07:17:48;;;;;;;13.10;5.35;;;5.80;99.90;;;;;;4938308;28;90651;-33
2023/01/30 07:20:14;;;;;;;15.20;5.57;;;5.90;99.90;;;;;;4941041;28;90398;-32
2023/01/30 07:22:40;;;;;;;17.25;5.47;;;5.90;99.90;;;;;;4941466;28;88766;-33
2023/01/30 07:25:06;;;;;;;30.65;6.55;;;5.90;99.90;;;;;;4940534;28;92260;-33
2023/01/30 07:27:33;;;;;;;20.77;6.05;;;5.90;99.90;;;;;;4941025;28;89446;-31
2023/01/30 07:29:58;;;;;;;24.23;7.10;;;5.80;99.90;;;;;;4940089;28;90132;-31
2023/01/30 07:32:24;;;;;;;25.17;5.70;;;5.90;99.90;;;;;;4940889;28;89946;-33
2023/01/30 07:34:50;;;;;;;26.10;6.97;;;5.90;99.90;;;;;;4940323;28;89389;-34
2023/01/30 07:37:15;;;;;;;21.35;5.90;;;5.90;99.90;;;;;;4940621;28;88598;-32
2023/01/30 07:39:41;;;;;;;16.23;5.10;;;5.90;99.90;;;;;;4940150;28;90073;-33
2023/01/30 07:42:07;;;;;;;28.67;6.72;;;6.00;99.90;;;;;;4940618;28;89032;-32
2023/01/30 07:44:33;;;;;;;25.05;5.43;;;6.00;99.90;;;;;;4940530;28;90599;-31
2023/01/30 07:46:59;;;;;;;13.70;5.55;;;5.90;99.90;;;;;;4940036;28;89470;-33
2023/01/30 07:49:25;;;;;;;14.35;5.15;;;5.90;99.90;;;;;;4941195;28;89764;-33
2023/01/30 07:51:51;;;;;;;29.25;6.85;;;6.10;99.90;;;;;;4940038;28;89985;-31
2023/01/30 07:54:17;;;;;;;31.38;6.05;;;6.10;99.90;;;;;;4940906;28;90392;-32
2023/01/30 07:56:43;;;;;;;15.45;5.13;;;6.00;99.90;;;;;;4939550;28;91121;-32
2023/01/30 07:59:10;;;;;;;16.75;6.53;;;6.00;99.90;;;;;;4940289;28;88282;-35
2023/01/30 08:01:36;;;;;;;18.77;6.18;;;6.10;99.90;;;;;;4941075;28;89757;-34
2023/01/30 08:04:01;;;;;;;24.35;5.95;;;6.10;99.90;;;;;;4940180;28;89942;-34
2023/01/30 08:06:27;;;;;;;27.13;6.03;;;6.10;99.90;;;;;;4939506;28;90246;-33
2023/01/30 08:08:53;;;;;;;27.35;5.95;;;6.10;99.90;;;;;;4939958;28;90536;-34
2023/01/30 08:11:18;;;;;;;22.20;6.32;;;6.20;99.90;;;;;;4940084;28;89235;-33
2023/01/30 08:13:44;;;;;;;13.75;5.90;;;6.20;99.90;;;;;;4940786;28;89987;-31
2023/01/30 08:16:10;;;;;;;15.90;5.80;;;6.20;99.90;;;;;;4939778;28;89812;-34
2023/01/30 08:18:35;;;;;;;19.95;7.40;;;6.20;99.90;;;;;;4939622;28;88424;-34
2023/01/30 08:21:04;;;;;;;9.65;3.53;;;6.30;99.90;;;;;;4939895;28;88845;-33
2023/01/30 08:23:30;;;;;;;7.57;4.68;;;6.30;99.90;;;;;;4939720;28;89193;-32
2023/01/30 08:25:57;;;;;;;16.23;5.68;;;6.30;99.90;;;;;;4939539;28;88877;-33
2023/01/30 08:28:23;;;;;;;25.88;6.45;;;6.40;99.90;;;;;;4939543;28;89316;-33
2023/01/30 08:30:51;;;;;;;17.90;6.07;;;6.30;99.90;;;;;;4938551;28;88694;-33
2023/01/30 08:33:16;;;;;;;18.30;6.63;;;6.30;99.90;;;;;;4938384;28;89751;-34
2023/01/30 08:35:42;;;;;;;14.80;5.68;;;6.40;99.90;;;;;;4939485;28;89777;-33
2023/01/30 08:38:08;;;;;;;18.00;5.88;;;6.40;99.90;;;;;;4939511;28;90755;-32
2023/01/30 08:40:34;;;;;;;21.73;4.63;;;6.40;99.90;;;;;;4939749;28;89405;-34
2023/01/30 08:43:00;;;;;;;13.23;5.40;;;6.40;99.90;;;;;;4939170;28;89952;-32
2023/01/30 08:45:26;;;;;;;17.58;4.80;;;6.40;99.90;;;;;;4938935;28;89550;-34
2023/01/30 08:47:52;;;;;;;15.65;6.32;;;6.40;99.90;;;;;;4939348;28;89481;-34
2023/01/30 08:50:18;;;;;;;25.42;7.45;;;6.30;99.90;;;;;;4938579;28;88262;-32
2023/01/30 08:52:43;;;;;;;19.48;7.13;;;6.40;99.90;;;;;;4939700;28;90008;-33
2023/01/30 08:55:09;;;;;;;17.33;6.95;;;6.30;99.90;;;;;;4936526;28;92255;-32
2023/01/30 08:57:35;;;;;;;23.80;6.55;;;6.30;99.90;;;;;;4939302;28;90707;-32
2023/01/30 09:00:01;;;;;;;25.08;7.45;;;6.30;99.90;;;;;;4939380;28;89624;-33
2023/01/30 09:02:26;;;;;;;16.25;6.13;;;6.30;99.90;;;;;;4939247;28;90110;-31
2023/01/30 09:04:52;;;;;;;11.65;6.00;;;6.30;99.90;;;;;;4938533;28;89774;-32
2023/01/30 09:07:18;;;;;;;22.05;6.95;;;6.40;99.90;;;;;;4939365;28;89954;-34
2023/01/30 09:09:44;;;;;;;24.67;5.90;;;6.40;99.90;;;;;;4939377;28;88596;-31
2023/01/30 09:12:09;;;;;;;14.15;6.32;;;6.50;99.90;;;;;;4939387;28;91077;-34
2023/01/30 09:14:35;;;;;;;26.00;6.63;;;6.50;99.90;;;;;;4938372;28;90089;-32
2023/01/30 09:17:00;;;;;;;16.35;6.95;;;6.50;99.90;;;;;;4938894;28;88539;-34
2023/01/30 09:19:27;;;;;;;22.35;6.90;;;6.50;99.90;;;;;;4938773;28;90386;-34
2023/01/30 09:21:54;;;;;;;21.75;6.30;;;6.70;99.90;;;;;;4938585;28;90419;-34
2023/01/30 09:24:25;;;;;;;21.20;7.43;;;6.70;99.90;;;;;;4939242;28;89719;-34
2023/01/30 09:26:56;;;;;;;25.58;6.97;;;6.80;99.90;;;;;;4938996;28;89235;-32
2023/01/30 09:29:22;;;;;;;15.50;6.15;;;6.80;99.90;;;;;;4939316;28;89199;-34
2023/01/30 09:31:48;;;;;;;22.73;6.95;;;6.80;99.90;;;;;;4938685;28;91253;-32
2023/01/30 09:34:14;;;;;;;13.93;3.72;;;6.90;99.90;;;;;;4937941;28;89677;-32
2023/01/30 09:36:40;;;;;;;12.88;5.13;;;7.00;99.90;;;;;;4937434;28;89042;-33
2023/01/30 09:39:06;;;;;;;18.70;5.57;;;7.10;99.90;;;;;;4938601;28;88612;-34
2023/01/30 09:42:07;;;;;;;22.70;4.60;;;7.10;99.90;;;;;;4938023;28;89499;-31
2023/01/30 09:44:53;;;;;;;21.55;6.82;;;7.10;99.90;;;;;;4937871;28;89277;-33
2023/01/30 09:47:53;;;;;;;19.80;6.57;;;7.20;99.90;;;;;;4938071;28;90402;-33
2023/01/30 09:50:38;;;;;;;22.02;6.82;;;7.20;99.90;;;;;;4981230;22;89453;-33
2023/01/30 09:53:22;;;;;;;28.73;7.05;;;7.20;99.90;;;;;;4958075;28;90316;-34
2023/01/30 09:55:48;;;;;;;33.28;7.55;;;7.20;99.90;;;;;;4945727;28;89641;-32
2023/01/30 09:58:20;;;;;;;22.50;5.72;;;7.30;99.90;;;;;;4956740;28;89409;-34
2023/01/30 10:00:48;;;;;;;24.83;5.95;;;7.40;99.90;;;;;;4945022;28;88045;-34
2023/01/30 10:03:17;;;;;;;21.83;7.37;;;7.40;99.90;;;;;;4957903;28;88318;-33
2023/01/30 10:05:59;;;;;;;23.48;6.50;;;7.50;99.90;;;;;;4957472;28;90075;-34
2023/01/30 10:08:51;;;;;;;18.05;6.57;;;7.50;99.90;;;;;;4957214;28;89801;-33
2023/01/30 10:11:17;;;;;;;19.48;5.65;;;7.50;99.90;;;;;;4956988;28;91140;-34
2023/01/30 10:13:51;;;;;;;9.15;4.03;;;7.40;99.90;;;;;;4958306;28;88427;-32
2023/01/30 10:16:52;;;;;;;16.10;4.65;;;7.40;99.90;;;;;;4957294;28;89286;-34
2023/01/30 10:19:43;;;;;;;13.82;5.72;;;7.00;99.90;;;;;;4957666;28;91153;-32
2023/01/30 10:22:26;;;;;;;19.60;6.18;;;7.00;99.90;;;;;;4945267;28;88918;-34
2023/01/30 10:25:06;;;;;;;20.23;7.03;;;6.90;99.90;;;;;;4956739;28;90196;-35
2023/01/30 10:27:33;;;;;;;22.27;6.60;;;6.90;99.90;;;;;;4957478;28;89688;-31
2023/01/30 10:30:03;;;;;;;19.90;6.25;;;6.70;99.90;;;;;;4957049;28;89587;-33
2023/01/30 10:32:35;;;;;;;17.13;6.43;;;6.70;99.90;;;;;;4957753;28;90329;-33
2023/01/30 10:35:22;;;;;;;20.75;6.47;;;6.80;99.90;;;;;;4956713;28;90084;-31
2023/01/30 10:38:01;;;;;;;24.63;6.50;;;6.70;99.90;;;;;;4955587;28;90564;-33
2023/01/30 10:40:45;;;;;;;15.75;6.15;;;6.80;99.90;;;;;;4956058;28;93311;-32
2023/01/30 10:43:35;;;;;;;20.98;6.63;;;6.90;99.90;;;;;;4958713;28;88479;-31
2023/01/30 10:46:17;;;;;;;30.77;7.35;;;7.00;99.90;;;;;;4956884;28;90305;-34
2023/01/30 10:49:20;;;;;;;15.43;6.88;;;7.20;99.90;;;;;;4957156;28;88784;-32
2023/01/30 10:52:03;;;;;;;21.65;6.93;;;7.30;99.90;;;;;;4948792;28;89470;-33
2023/01/30 10:54:55;;;;;;;19.20;7.20;;;7.30;99.90;;;;;;4961199;28;90230;-32
2023/01/30 10:57:27;;;;;;;18.40;6.43;;;7.30;99.90;;;;;;4960554;28;91590;-32
2023/01/30 11:00:03;;;;;;;30.98;6.93;;;7.30;99.90;;;;;;4960945;28;89574;-32
2023/01/30 11:02:48;;;;;;;17.92;5.07;;;7.20;99.90;;;;;;4960183;28;88863;-34
2023/01/30 11:05:43;;;;;;;15.93;6.18;;;7.20;99.90;;;;;;4960860;28;90104;-34
2023/01/30 11:08:30;;;;;;;9.70;3.33;;;7.30;99.90;;;;;;4955192;28;89892;-31
2023/01/30 11:10:57;;;;;;;8.23;3.08;;;6.80;99.90;;;;;;4960279;28;89716;-32
2023/01/30 11:13:32;;;;;;;19.27;4.32;;;6.40;99.90;;;;;;4960274;28;90250;-33
2023/01/30 11:16:06;;;;;;;14.30;5.03;;;6.10;99.90;;;;;;4960252;28;88632;-34
2023/01/30 11:18:32;;;;;;;21.23;5.65;;;6.00;99.90;;;;;;4960904;28;89880;-31
2023/01/30 11:21:06;;;;;;;26.73;6.25;;;5.90;99.90;;;;;;4959993;28;90111;-32
2023/01/30 11:23:40;;;;;;;13.50;4.35;;;5.90;99.90;;;;;;4960784;28;89639;-32
2023/01/30 11:26:06;;;;;;;16.65;4.97;;;6.10;99.90;;;;;;4949057;28;88507;-32
2023/01/30 11:28:43;;;;;;;24.63;4.75;;;6.20;99.90;;;;;;4960105;28;90082;-33
2023/01/30 11:31:20;;;;;;;8.95;4.18;;;6.30;99.90;;;;;;4959197;28;90046;-34
2023/01/30 11:34:02;;;;;;;5.45;3.28;;;6.50;99.90;;;;;;4959732;28;89352;-32
2023/01/30 11:36:30;;;;;;;10.50;3.40;;;6.70;99.90;;;;;;4960291;28;89333;-33
2023/01/30 11:39:18;;;;;;;10.75;4.97;;;6.80;99.90;;;;;;4959535;28;90971;-32
2023/01/30 11:41:53;;;;;;;16.60;5.15;;;6.90;99.90;;;;;;4956083;28;89221;-33
2023/01/30 11:44:25;;;;;;;13.82;4.57;;;7.00;99.90;;;;;;4941104;28;89245;-32
2023/01/30 11:46:51;;;;;;;15.98;4.95;;;7.20;99.90;;;;;;4940467;28;90233;-32
2023/01/30 11:49:20;;;;;;;18.08;4.85;;;7.30;99.90;;;;;;4941802;28;90336;-33
2023/01/30 11:51:47;;;;;;;21.50;5.00;;;7.40;99.90;;;;;;4957694;28;89735;-32
2023/01/30 11:54:38;;;;;;;11.88;4.22;;;7.40;99.90;;;;;;4960327;28;89766;-34
2023/01/30 11:57:09;;;;;;;15.88;4.82;;;7.30;99.90;;;;;;4940347;28;89357;-34
2023/01/30 11:59:57;;;;;;;13.60;4.78;;;7.40;99.90;;;;;;4960415;28;90774;-32
2023/01/30 12:02:27;;;;;;;15.10;4.90;;;7.40;99.90;;;;;;4960060;28;89597;-32
2023/01/30 12:05:03;;;;;;;11.85;3.67;;;7.30;99.90;;;;;;4960059;28;88362;-32
2023/01/30 12:07:31;;;;;;;15.88;4.20;;;7.30;99.90;;;;;;4960849;28;88124;-33
2023/01/30 12:09:58;;;;;;;9.98;3.33;;;7.30;99.90;;;;;;4959279;28;91028;-33
2023/01/30 12:12:32;;;;;;;5.07;2.33;;;7.20;99.90;;;;;;4959434;28;89572;-32
2023/01/30 12:15:25;;;;;;;4.50;3.08;;;7.30;99.90;;;;;;4959721;28;90066;-32
2023/01/30 12:18:06;;;;;;;10.13;3.50;;;7.50;99.90;;;;;;4959596;28;89065;-33
2023/01/30 12:20:57;;;;;;;9.02;2.92;;;7.60;99.90;;;;;;4959896;28;90471;-34
2023/01/30 12:23:37;;;;;;;5.00;2.15;;;7.70;99.90;;;;;;4959054;28;90720;-33
2023/01/30 12:26:15;;;;;;;7.28;2.40;;;7.80;99.90;;;;;;4959349;28;90467;-33
2023/01/30 12:29:14;;;;;;;10.75;3.90;;;7.80;99.90;;;;;;4942464;28;88665;-32
2023/01/30 12:31:47;;;;;;;6.90;2.75;;;7.70;99.90;;;;;;4947997;28;89971;-33
2023/01/30 12:34:12;;;;;;;8.63;3.50;;;7.80;99.90;;;;;;4941194;28;90089;-33
2023/01/30 12:37:10;;;;;;;11.98;3.70;;;7.70;99.90;;;;;;4959046;28;89579;-32
2023/01/30 12:39:48;;;;;;;7.80;2.88;;;7.70;99.90;;;;;;4959425;28;87635;-32
2023/01/30 12:42:16;;;;;;;7.72;2.53;;;7.70;99.90;;;;;;4959731;28;90028;-34
2023/01/30 12:44:47;;;;;;;11.25;3.40;;;7.70;99.90;;;;;;4959083;28;91198;-33
2023/01/30 12:47:25;;;;;;;8.82;3.35;;;7.70;99.90;;;;;;4959025;28;89236;-34
2023/01/30 12:50:03;;;;;;;8.57;3.00;;;7.70;99.90;;;;;;4957972;28;89679;-34
2023/01/30 12:52:46;;;;;;;20.67;4.03;;;7.70;99.90;;;;;;4958868;28;90168;-32
2023/01/30 12:55:45;;;;;;;8.20;3.17;;;7.80;99.90;;;;;;4958848;28;89984;-35
2023/01/30 12:58:31;;;;;;;12.30;4.35;;;7.80;99.90;;;;;;4958946;28;89137;-34
2023/01/30 13:01:15;;;;;;;13.25;4.78;;;7.70;99.90;;;;;;4948696;28;89327;-32
2023/01/30 13:04:00;;;;;;;20.38;4.97;;;7.80;99.90;;;;;;4958210;28;89712;-33
2023/01/30 13:06:54;;;;;;;9.48;3.40;;;7.80;99.90;;;;;;4958954;28;90275;-33
2023/01/30 13:09:22;;;;;;;9.60;4.18;;;7.70;99.90;;;;;;4958510;28;89501;-32
2023/01/30 13:12:02;;;;;;;;;;;7.80;99.90;;;;;;4941820;28;89697;-32
2023/01/30 13:14:37;;;;;;;7.18;3.58;;;7.70;99.90;;;;;;4953177;28;91838;-32